createdAt,value
2023-11-27T00:00:43.990Z,0.00
2023-11-27T00:01:44.085Z,0.00
2023-11-27T00:02:43.967Z,0.00
2023-11-27T00:03:43.951Z,0.00
2023-11-27T00:04:43.946Z,0.00
2023-11-27T00:05:43.869Z,0.00
2023-11-27T00:06:43.861Z,0.00
2023-11-27T00:07:43.826Z,0.00
2023-11-27T00:08:43.806Z,0.00
2023-11-27T00:09:43.895Z,0.00
2023-11-27T00:10:43.932Z,0.00
2023-11-27T00:11:43.799Z,0.00
2023-11-27T00:12:43.787Z,0.00
2023-11-27T00:13:43.975Z,0.00
2023-11-27T00:14:43.777Z,0.00
2023-11-27T00:15:43.827Z,0.00
2023-11-27T00:16:43.794Z,0.00
2023-11-27T00:17:43.835Z,0.00
2023-11-27T00:18:43.743Z,0.00
2023-11-27T00:19:43.739Z,0.00
2023-11-27T00:20:43.739Z,0.00
2023-11-27T00:21:43.721Z,0.00
2023-11-27T00:22:43.671Z,0.00
2023-11-27T00:23:43.658Z,0.00
2023-11-27T00:24:43.694Z,0.00
2023-11-27T00:25:43.645Z,0.00
2023-11-27T00:26:43.638Z,0.00
2023-11-27T00:27:43.798Z,0.00
2023-11-27T00:28:43.614Z,0.00
2023-11-27T00:29:43.606Z,0.00
2023-11-27T00:30:43.668Z,0.00
2023-11-27T00:31:43.728Z,0.00
2023-11-27T00:32:43.570Z,0.00
2023-11-27T00:33:43.570Z,0.00
2023-11-27T00:34:43.553Z,0.00
2023-11-27T00:35:43.559Z,0.00
2023-11-27T00:36:43.555Z,0.00
2023-11-27T00:37:43.553Z,0.00
2023-11-27T00:38:43.493Z,0.00
2023-11-27T00:39:43.884Z,0.00
2023-11-27T00:40:43.463Z,0.00
2023-11-27T00:41:43.470Z,0.00
2023-11-27T00:42:43.489Z,0.00
2023-11-27T00:43:43.480Z,0.00
2023-11-27T00:44:44.896Z,0.00
2023-11-27T00:45:43.454Z,0.00
2023-11-27T00:46:43.421Z,0.00
2023-11-27T00:47:43.485Z,0.00
2023-11-27T00:48:43.404Z,0.00
2023-11-27T00:49:43.394Z,0.00
2023-11-27T00:50:43.361Z,0.00
2023-11-27T00:51:43.384Z,0.00
2023-11-27T00:52:43.336Z,0.00
2023-11-27T00:53:43.355Z,0.00
2023-11-27T00:54:43.434Z,0.00
2023-11-27T00:55:43.326Z,0.00
2023-11-27T00:56:43.302Z,0.00
2023-11-27T00:57:43.339Z,0.00
2023-11-27T00:58:43.277Z,0.00
2023-11-27T00:59:43.274Z,0.00
2023-11-27T01:00:43.313Z,0.00
2023-11-27T01:01:43.286Z,0.00
2023-11-27T01:02:43.332Z,0.00
2023-11-27T01:03:43.292Z,0.00
2023-11-27T01:04:43.213Z,0.00
2023-11-27T01:05:43.237Z,0.00
2023-11-27T01:06:43.234Z,0.00
2023-11-27T01:07:43.215Z,0.00
2023-11-27T01:08:43.216Z,0.00
2023-11-27T01:09:43.227Z,0.00
2023-11-27T01:10:43.174Z,0.00
2023-11-27T01:11:43.163Z,0.00
2023-11-27T01:12:43.234Z,0.00
2023-11-27T01:13:43.145Z,0.00
2023-11-27T01:14:43.157Z,0.00
2023-11-27T01:15:43.302Z,0.00
2023-11-27T01:16:43.080Z,0.00
2023-11-27T01:17:43.106Z,0.00
2023-11-27T01:18:43.111Z,0.00
2023-11-27T01:19:43.065Z,0.00
2023-11-27T01:20:43.064Z,0.00
2023-11-27T01:21:43.104Z,0.00
2023-11-27T01:22:47.712Z,0.00
2023-11-27T01:23:43.023Z,0.00
2023-11-27T01:24:43.030Z,0.00
2023-11-27T01:25:43.044Z,0.00
2023-11-27T01:26:43.063Z,0.00
2023-11-27T01:27:43.068Z,0.00
2023-11-27T01:28:43.106Z,0.00
2023-11-27T01:29:42.972Z,0.00
2023-11-27T01:30:43.035Z,0.00
2023-11-27T01:31:43.012Z,0.00
2023-11-27T01:32:42.993Z,0.00
2023-11-27T01:33:43.094Z,0.00
2023-11-27T01:34:43.027Z,0.00
2023-11-27T01:35:42.926Z,0.00
2023-11-27T01:36:42.985Z,0.00
2023-11-27T01:37:42.898Z,0.00
2023-11-27T01:38:42.949Z,0.00
2023-11-27T01:39:42.975Z,0.00
2023-11-27T01:40:42.832Z,0.00
2023-11-27T01:41:42.949Z,0.00
2023-11-27T01:42:42.920Z,0.00
2023-11-27T01:43:42.817Z,0.00
2023-11-27T01:44:42.916Z,0.00
2023-11-27T01:45:42.818Z,0.00
2023-11-27T01:46:42.818Z,0.00
2023-11-27T01:47:42.787Z,0.00
2023-11-27T01:48:42.813Z,0.00
2023-11-27T01:49:42.730Z,0.00
2023-11-27T01:50:42.762Z,0.00
2023-11-27T01:51:42.747Z,0.00
2023-11-27T01:52:42.719Z,0.00
2023-11-27T01:53:42.702Z,0.00
2023-11-27T01:54:42.720Z,0.00
2023-11-27T01:55:42.667Z,0.00
2023-11-27T01:56:42.712Z,0.00
2023-11-27T01:57:42.701Z,0.00
2023-11-27T01:58:42.655Z,0.00
2023-11-27T01:59:42.626Z,0.00
2023-11-27T02:00:42.709Z,0.00
2023-11-27T02:01:42.710Z,0.00
2023-11-27T02:02:42.679Z,0.00
2023-11-27T02:03:42.662Z,0.00
2023-11-27T02:04:42.594Z,0.00
2023-11-27T02:05:42.561Z,0.00
2023-11-27T02:06:42.652Z,0.00
2023-11-27T02:07:42.542Z,0.00
2023-11-27T02:08:42.580Z,0.00
2023-11-27T02:09:42.560Z,0.00
2023-11-27T02:10:42.526Z,0.00
2023-11-27T02:11:42.498Z,0.00
2023-11-27T02:12:42.535Z,0.00
2023-11-27T02:13:42.480Z,0.00
2023-11-27T02:14:42.498Z,0.00
2023-11-27T02:15:42.471Z,0.00
2023-11-27T02:16:42.494Z,0.00
2023-11-27T02:17:42.477Z,0.00
2023-11-27T02:18:42.445Z,0.00
2023-11-27T02:19:42.453Z,0.00
2023-11-27T02:20:42.421Z,0.00
2023-11-27T02:21:42.444Z,0.00
2023-11-27T02:22:42.394Z,0.00
2023-11-27T02:23:42.399Z,0.00
2023-11-27T02:24:42.381Z,0.00
2023-11-27T02:25:42.379Z,0.00
2023-11-27T02:26:42.366Z,0.00
2023-11-27T02:27:42.371Z,0.00
2023-11-27T02:28:42.349Z,0.00
2023-11-27T02:29:42.360Z,0.00
2023-11-27T07:00:51.860Z,23.00
2023-11-27T07:01:52.886Z,24.00
2023-11-27T07:02:52.819Z,26.00
2023-11-27T07:03:52.864Z,26.00
2023-11-27T07:04:52.796Z,31.00
2023-11-27T07:05:52.786Z,29.00
2023-11-27T07:06:52.776Z,31.00
2023-11-27T07:07:52.790Z,42.00
2023-11-27T07:08:52.709Z,39.00
2023-11-27T07:09:52.783Z,41.00
2023-11-27T07:10:55.657Z,44.00
2023-11-27T07:11:52.725Z,47.00
2023-11-27T07:12:52.708Z,49.00
2023-11-27T07:13:52.675Z,56.00
2023-11-27T07:14:52.650Z,57.00
2023-11-27T07:15:53.620Z,56.00
2023-11-27T07:16:52.698Z,61.00
2023-11-27T07:17:58.096Z,62.00
2023-11-27T07:18:52.761Z,61.00
2023-11-27T07:19:53.470Z,63.00
2023-11-27T07:20:52.578Z,63.00
2023-11-27T07:21:52.685Z,65.00
2023-11-27T07:22:52.555Z,62.00
2023-11-27T07:23:52.558Z,67.00
2023-11-27T07:24:52.548Z,70.00
2023-11-27T07:25:52.543Z,72.00
2023-11-27T07:26:52.529Z,72.00
2023-11-27T07:27:52.657Z,74.00
2023-11-27T07:28:52.535Z,80.00
2023-11-27T07:29:52.545Z,86.00
2023-11-27T07:30:52.570Z,91.00
2023-11-27T07:31:52.574Z,96.00
2023-11-27T07:32:52.513Z,97.00
2023-11-27T07:33:52.533Z,109.00
2023-11-27T07:34:52.440Z,112.00
2023-11-27T07:35:52.492Z,123.00
2023-11-27T07:36:52.457Z,137.00
2023-11-27T07:37:52.421Z,144.00
2023-11-27T07:38:52.395Z,91.00
2023-11-27T07:39:52.438Z,103.00
2023-11-27T07:40:52.371Z,143.00
2023-11-27T07:41:52.384Z,120.00
2023-11-27T07:42:52.368Z,132.00
2023-11-27T07:43:52.401Z,143.00
2023-11-27T07:44:52.338Z,161.00
2023-11-27T07:45:52.386Z,170.00
2023-11-27T07:46:52.435Z,141.00
2023-11-27T07:47:53.526Z,190.00
2023-11-27T07:48:52.288Z,160.00
2023-11-27T07:49:52.317Z,180.00
2023-11-27T07:50:52.278Z,201.00
2023-11-27T07:51:52.322Z,211.00
2023-11-27T07:52:52.265Z,215.00
2023-11-27T07:53:52.257Z,205.00
2023-11-27T07:54:52.235Z,232.00
2023-11-27T07:55:52.267Z,239.00
2023-11-27T07:56:52.212Z,247.00
2023-11-27T07:57:53.194Z,263.00
2023-11-27T07:58:52.188Z,270.00
2023-11-27T07:59:52.185Z,273.00
2023-11-27T08:00:52.171Z,273.00
2023-11-27T08:01:52.383Z,286.00
2023-11-27T08:02:52.152Z,301.00
2023-11-27T08:03:52.259Z,308.00
2023-11-27T08:04:52.269Z,304.00
2023-11-27T08:05:52.130Z,318.00
2023-11-27T08:06:52.108Z,329.00
2023-11-27T08:07:52.916Z,325.00
2023-11-27T08:08:52.084Z,322.00
2023-11-27T08:09:52.117Z,326.00
2023-11-27T08:10:52.077Z,346.00
2023-11-27T08:11:52.104Z,360.00
2023-11-27T08:12:52.046Z,339.00
2023-11-27T08:13:52.074Z,339.00
2023-11-27T08:14:52.058Z,336.00
2023-11-27T08:15:52.053Z,350.00
2023-11-27T08:16:52.188Z,357.00
2023-11-27T08:17:52.042Z,324.00
2023-11-27T08:18:52.021Z,350.00
2023-11-27T08:19:51.993Z,310.00
2023-11-27T08:20:51.992Z,295.00
2023-11-27T08:21:51.999Z,314.00
2023-11-27T08:22:51.960Z,270.00
2023-11-27T08:30:55.227Z,314.00
2023-11-27T08:31:56.063Z,299.00
2023-11-27T08:32:56.040Z,250.00
2023-11-27T08:33:56.092Z,457.00
2023-11-27T08:34:55.996Z,440.00
2023-11-27T08:35:56.019Z,328.00
2023-11-27T08:36:55.987Z,229.00
2023-11-27T08:37:55.996Z,328.00
2023-11-27T08:38:55.961Z,355.00
2023-11-27T08:39:55.994Z,448.00
2023-11-27T08:40:55.926Z,354.00
2023-11-27T08:41:56.052Z,334.00
2023-11-27T08:42:55.950Z,313.00
2023-11-27T08:43:55.945Z,271.00
2023-11-27T08:44:55.901Z,353.00
2023-11-27T08:45:55.972Z,399.00
2023-11-27T08:46:55.926Z,526.00
2023-11-27T08:47:55.910Z,528.00
2023-11-27T08:48:55.882Z,559.00
2023-11-27T08:49:55.875Z,536.00
2023-11-27T08:50:55.830Z,461.00
2023-11-27T08:51:55.865Z,455.00
2023-11-27T08:52:55.798Z,290.00
2023-11-27T08:53:55.827Z,315.00
2023-11-27T08:54:55.829Z,321.00
2023-11-27T08:55:55.802Z,308.00
2023-11-27T08:56:55.817Z,245.00
2023-11-27T08:57:55.803Z,201.00
2023-11-27T08:58:55.741Z,235.00
2023-11-27T08:59:55.769Z,273.00
2023-11-27T09:00:55.761Z,317.00
2023-11-27T09:01:55.844Z,135.00
2023-11-27T09:02:57.024Z,279.00
2023-11-27T09:03:55.796Z,234.00
2023-11-27T09:04:55.679Z,265.00
2023-11-27T09:05:55.740Z,290.00
2023-11-27T09:06:55.672Z,250.00
2023-11-27T09:07:55.676Z,248.00
2023-11-27T09:08:55.694Z,81.00
2023-11-27T09:09:55.693Z,342.00
2023-11-27T09:10:55.695Z,229.00
2023-11-27T09:11:55.620Z,239.00
2023-11-27T09:12:55.668Z,172.00
2023-11-27T09:13:55.644Z,310.00
2023-11-27T09:14:55.598Z,376.00
2023-11-27T09:15:55.724Z,365.00
2023-11-27T09:16:56.868Z,265.00
2023-11-27T09:17:55.593Z,377.00
2023-11-27T09:18:55.622Z,324.00
2023-11-27T09:19:55.549Z,407.00
2023-11-27T09:20:55.546Z,465.00
2023-11-27T09:21:55.547Z,454.00
2023-11-27T09:22:55.512Z,539.00
2023-11-27T09:23:55.528Z,579.00
2023-11-27T09:24:55.480Z,614.00
2023-11-27T09:25:55.495Z,471.00
2023-11-27T09:26:55.477Z,348.00
2023-11-27T09:27:55.494Z,170.00
2023-11-27T09:28:55.476Z,403.00
2023-11-27T09:29:55.436Z,274.00
2023-11-27T09:30:55.445Z,302.00
2023-11-27T09:31:55.509Z,370.00
2023-11-27T09:32:55.432Z,303.00
2023-11-27T09:33:55.408Z,427.00
2023-11-27T09:34:55.380Z,289.00
2023-11-27T09:35:55.384Z,405.00
2023-11-27T09:37:02.496Z,285.00
2023-11-27T09:37:55.388Z,502.00
2023-11-27T09:38:55.328Z,434.00
2023-11-27T09:39:55.329Z,584.00
2023-11-27T09:40:55.319Z,478.00
2023-11-27T09:41:55.318Z,257.00
2023-11-27T09:42:55.370Z,449.00
2023-11-27T09:43:55.310Z,458.00
2023-11-27T09:44:55.281Z,499.00
2023-11-27T09:45:55.272Z,511.00
2023-11-27T09:46:55.253Z,532.00
2023-11-27T09:47:55.314Z,320.00
2023-11-27T09:48:55.243Z,438.00
2023-11-27T09:49:55.243Z,391.00
2023-11-27T09:50:55.235Z,617.00
2023-11-27T09:51:55.226Z,512.00
2023-11-27T09:52:55.204Z,403.00
2023-11-27T09:53:55.196Z,274.00
2023-11-27T09:54:55.196Z,423.00
2023-11-27T09:55:55.278Z,475.00
2023-11-27T09:56:55.184Z,497.00
2023-11-27T09:57:55.177Z,459.00
2023-11-27T09:58:55.123Z,400.00
2023-11-27T09:59:55.154Z,400.00
2023-11-27T10:00:55.234Z,372.00
2023-11-27T10:01:55.295Z,441.00
2023-11-27T10:02:55.301Z,442.00
2023-11-27T10:03:55.108Z,348.00
2023-11-27T10:04:55.108Z,366.00
2023-11-27T10:05:55.107Z,275.00
2023-11-27T10:06:55.108Z,520.00
2023-11-27T10:07:55.110Z,382.00
2023-11-27T10:08:55.036Z,369.00
2023-11-27T10:09:55.037Z,370.00
2023-11-27T10:10:55.037Z,416.00
2023-11-27T10:11:55.001Z,316.00
2023-11-27T10:12:55.062Z,480.00
2023-11-27T10:14:55.022Z,536.00
2023-11-27T10:15:55.085Z,481.00
2023-11-27T10:16:55.036Z,323.00
2023-11-27T10:19:44.014Z,359.00
2023-11-27T10:23:11.568Z,398.00
2023-11-27T10:24:12.588Z,328.00
2023-11-27T10:25:12.533Z,531.00
2023-11-27T10:26:12.518Z,391.00
2023-11-27T10:27:12.521Z,517.00
2023-11-27T10:28:14.292Z,281.00
2023-11-27T10:29:12.502Z,514.00
2023-11-27T10:30:12.495Z,413.00
2023-11-27T10:31:12.525Z,288.00
2023-11-27T10:32:12.576Z,416.00
2023-11-27T10:33:12.524Z,423.00
2023-11-27T10:34:12.437Z,407.00
2023-11-27T10:35:12.459Z,534.00
2023-11-27T10:36:12.480Z,500.00
2023-11-27T10:37:12.407Z,427.00
2023-11-27T10:38:12.401Z,415.00
2023-11-27T10:39:12.362Z,611.00
2023-11-27T10:40:12.387Z,387.00
2023-11-27T10:41:12.378Z,441.00
2023-11-27T10:42:12.349Z,592.00
2023-11-27T10:43:12.449Z,624.00
2023-11-27T10:44:12.374Z,540.00
2023-11-27T10:45:12.301Z,230.00
2023-11-27T10:46:12.363Z,602.00
2023-11-27T10:47:12.383Z,647.00
2023-11-27T10:48:12.617Z,380.00
2023-11-27T10:49:12.398Z,586.00
2023-11-27T10:50:12.272Z,475.00
2023-11-27T10:51:12.248Z,314.00
2023-11-27T10:52:12.285Z,526.00
2023-11-27T10:53:12.278Z,653.00
2023-11-27T10:54:12.222Z,557.00
2023-11-27T10:55:12.212Z,533.00
2023-11-27T10:56:12.206Z,363.00
2023-11-27T10:57:12.189Z,476.00
2023-11-27T10:58:12.199Z,378.00
2023-11-27T10:59:12.204Z,472.00
2023-11-27T11:00:12.219Z,416.00
2023-11-27T11:01:12.190Z,399.00
2023-11-27T11:02:12.217Z,452.00
2023-11-27T11:03:12.130Z,362.00
2023-11-27T11:04:12.216Z,396.00
2023-11-27T11:05:12.606Z,458.00
2023-11-27T11:06:12.088Z,440.00
2023-11-27T11:07:12.090Z,400.00
2023-11-27T11:08:12.114Z,434.00
2023-11-27T11:09:12.185Z,414.00
2023-11-27T11:10:12.147Z,459.00
2023-11-27T11:11:12.025Z,397.00
2023-11-27T11:12:12.035Z,332.00
2023-11-27T11:13:12.033Z,403.00
2023-11-27T11:14:12.018Z,305.00
2023-11-27T11:15:12.012Z,328.00
2023-11-27T11:16:12.158Z,351.00
2023-11-27T11:17:12.035Z,340.00
2023-11-27T11:18:12.319Z,429.00
2023-11-27T11:19:11.995Z,356.00
2023-11-27T11:20:11.991Z,367.00
2023-11-27T11:21:11.934Z,270.00
2023-11-27T11:22:11.984Z,377.00
2023-11-27T11:23:12.143Z,406.00
2023-11-27T11:24:11.936Z,452.00
2023-11-27T11:25:11.928Z,261.00
2023-11-27T11:26:11.899Z,339.00
2023-11-27T11:27:11.889Z,411.00
2023-11-27T11:28:11.921Z,529.00
2023-11-27T11:29:11.869Z,405.00
2023-11-27T11:30:11.932Z,449.00
2023-11-27T11:31:11.974Z,561.00
2023-11-27T11:32:11.830Z,556.00
2023-11-27T11:33:11.820Z,335.00
2023-11-27T11:34:11.903Z,560.00
2023-11-27T11:35:11.796Z,470.00
2023-11-27T11:36:11.789Z,463.00
2023-11-27T11:37:11.792Z,499.00
2023-11-27T11:38:11.805Z,409.00
2023-11-27T11:39:11.779Z,290.00
2023-11-27T11:40:12.607Z,366.00
2023-11-27T11:41:11.715Z,397.00
2023-11-27T11:42:11.748Z,411.00
2023-11-27T11:43:11.851Z,357.00
2023-11-27T11:44:11.728Z,328.00
2023-11-27T11:45:11.967Z,321.00
2023-11-27T11:46:11.774Z,258.00
2023-11-27T11:47:11.762Z,294.00
2023-11-27T11:48:11.846Z,246.00
2023-11-27T11:49:11.727Z,286.00
2023-11-27T11:50:11.689Z,298.00
2023-11-27T11:51:11.686Z,218.00
2023-11-27T11:52:11.701Z,293.00
2023-11-27T11:53:11.661Z,285.00
2023-11-27T11:54:11.614Z,280.00
2023-11-27T11:55:11.739Z,236.00
2023-11-27T11:56:11.614Z,273.00
2023-11-27T11:57:11.573Z,218.00
2023-11-27T11:58:11.599Z,292.00
2023-11-27T11:59:11.557Z,271.00
2023-11-27T12:00:11.538Z,257.00
2023-11-27T12:01:11.555Z,257.00
2023-11-27T12:02:11.733Z,289.00
2023-11-27T12:03:11.607Z,247.00
2023-11-27T12:04:11.651Z,337.00
2023-11-27T12:05:11.526Z,278.00
2023-11-27T12:06:11.474Z,287.00
2023-11-27T12:07:11.498Z,305.00
2023-11-27T12:08:11.483Z,269.00
2023-11-27T12:09:11.434Z,240.00
2023-11-27T12:10:11.516Z,298.00
2023-11-27T12:11:11.415Z,264.00
2023-11-27T12:12:11.430Z,245.00
2023-11-27T12:13:11.486Z,237.00
2023-11-27T12:14:11.449Z,222.00
2023-11-27T12:15:11.387Z,247.00
2023-11-27T12:16:11.410Z,248.00
2023-11-27T12:17:11.429Z,257.00
2023-11-27T12:18:11.526Z,254.00
2023-11-27T12:19:11.414Z,330.00
2023-11-27T12:20:11.391Z,328.00
2023-11-27T12:21:11.321Z,233.00
2023-11-27T12:22:11.391Z,253.00
2023-11-27T12:23:11.299Z,251.00
2023-11-27T12:24:11.351Z,334.00
2023-11-27T12:25:11.289Z,319.00
2023-11-27T12:26:11.357Z,332.00
2023-11-27T12:27:11.280Z,338.00
2023-11-27T12:28:11.330Z,295.00
2023-11-27T12:29:11.222Z,239.00
2023-11-27T12:30:11.302Z,333.00
2023-11-27T12:31:11.276Z,237.00
2023-11-27T12:32:11.296Z,366.00
2023-11-27T12:33:11.248Z,222.00
2023-11-27T12:34:11.213Z,329.00
2023-11-27T12:35:11.187Z,307.00
2023-11-27T12:36:11.201Z,314.00
2023-11-27T12:37:11.179Z,381.00
2023-11-27T12:38:11.198Z,310.00
2023-11-27T12:39:11.125Z,324.00
2023-11-27T12:40:11.169Z,355.00
2023-11-27T12:41:11.114Z,296.00
2023-11-27T12:42:11.151Z,303.00
2023-11-27T12:43:11.118Z,405.00
2023-11-27T12:44:11.084Z,310.00
2023-11-27T12:45:11.066Z,376.00
2023-11-27T12:46:11.343Z,357.00
2023-11-27T12:47:11.280Z,411.00
2023-11-27T12:48:11.111Z,361.00
2023-11-27T12:49:11.078Z,300.00
2023-11-27T12:50:11.057Z,373.00
2023-11-27T12:51:11.001Z,416.00
2023-11-27T12:52:11.108Z,358.00
2023-11-27T12:53:11.025Z,437.00
2023-11-27T12:54:11.052Z,384.00
2023-11-27T12:55:11.042Z,353.00
2023-11-27T12:56:11.087Z,361.00
2023-11-27T12:57:11.009Z,348.00
2023-11-27T12:58:12.173Z,343.00
2023-11-27T12:59:10.935Z,325.00
2023-11-27T13:00:10.911Z,328.00
2023-11-27T13:01:11.288Z,319.00
2023-11-27T13:02:11.066Z,269.00
2023-11-27T13:03:10.943Z,260.00
2023-11-27T13:04:10.951Z,240.00
2023-11-27T13:05:10.892Z,262.00
2023-11-27T13:06:10.898Z,230.00
2023-11-27T13:07:11.263Z,237.00
2023-11-27T13:08:10.846Z,225.00
2023-11-27T13:09:10.820Z,236.00
2023-11-27T13:10:10.937Z,238.00
2023-11-27T13:11:10.821Z,181.00
2023-11-27T13:12:10.812Z,173.00
2023-11-27T13:13:10.792Z,234.00
2023-11-27T13:14:10.776Z,174.00
2023-11-27T13:15:10.829Z,204.00
2023-11-27T13:16:10.838Z,195.00
2023-11-27T13:17:11.072Z,191.00
2023-11-27T13:18:10.755Z,195.00
2023-11-27T13:19:10.794Z,181.00
2023-11-27T13:20:10.749Z,205.00
2023-11-27T13:21:10.806Z,192.00
2023-11-27T13:22:10.780Z,202.00
2023-11-27T13:23:10.763Z,194.00
2023-11-27T13:24:10.730Z,244.00
2023-11-27T13:25:10.708Z,219.00
2023-11-27T13:26:10.689Z,254.00
2023-11-27T13:27:10.632Z,187.00
2023-11-27T13:28:10.638Z,204.00
2023-11-27T13:29:10.606Z,246.00
2023-11-27T13:30:10.629Z,217.00
2023-11-27T13:31:10.650Z,281.00
2023-11-27T13:32:10.714Z,230.00
2023-11-27T13:33:10.597Z,214.00
2023-11-27T13:34:10.631Z,220.00
2023-11-27T13:35:10.551Z,231.00
2023-11-27T13:36:10.575Z,194.00
2023-11-27T13:37:10.574Z,224.00
2023-11-27T13:38:10.549Z,218.00
2023-11-27T13:39:10.528Z,194.00
2023-11-27T13:40:10.572Z,221.00
2023-11-27T13:41:10.480Z,213.00
2023-11-27T13:44:27.849Z,201.00
2023-11-27T13:45:34.840Z,203.00
2023-11-27T13:46:28.871Z,186.00
2023-11-27T13:47:28.901Z,214.00
2023-11-27T13:48:28.878Z,170.00
2023-11-27T13:49:28.838Z,187.00
2023-11-27T13:50:28.748Z,206.00
2023-11-27T13:51:28.770Z,166.00
2023-11-27T13:52:28.784Z,187.00
2023-11-27T13:53:28.734Z,165.00
2023-11-27T13:54:28.762Z,167.00
2023-11-27T13:55:28.714Z,192.00
2023-11-27T13:56:28.695Z,186.00
2023-11-27T13:57:29.126Z,169.00
2023-11-27T13:58:28.725Z,176.00
2023-11-27T13:59:28.664Z,183.00
2023-11-27T14:00:28.675Z,188.00
2023-11-27T14:01:28.842Z,150.00
2023-11-27T14:02:29.567Z,173.00
2023-11-27T14:03:28.692Z,195.00
2023-11-27T14:04:28.852Z,144.00
2023-11-27T14:05:28.690Z,175.00
2023-11-27T14:06:28.608Z,147.00
2023-11-27T14:07:28.693Z,155.00
2023-11-27T14:08:28.553Z,115.00
2023-11-27T14:09:28.555Z,140.00
2023-11-27T14:10:28.579Z,163.00
2023-11-27T14:11:33.139Z,151.00
2023-11-27T14:12:28.519Z,130.00
2023-11-27T14:13:28.558Z,128.00
2023-11-27T14:14:28.487Z,138.00
2023-11-27T14:15:28.495Z,106.00
2023-11-27T14:16:28.627Z,130.00
2023-11-27T14:17:28.560Z,112.00
2023-11-27T14:18:28.686Z,106.00
2023-11-27T14:19:28.505Z,96.00
2023-11-27T14:20:28.450Z,107.00
2023-11-27T14:21:28.460Z,110.00
2023-11-27T14:22:28.474Z,86.00
2023-11-27T14:23:28.420Z,108.00
2023-11-27T14:24:28.416Z,113.00
2023-11-27T14:25:28.412Z,115.00
2023-11-27T14:26:28.378Z,90.00
2023-11-27T14:27:28.373Z,104.00
2023-11-27T14:28:28.433Z,106.00
2023-11-27T14:29:28.384Z,108.00
2023-11-27T14:30:28.375Z,79.00
2023-11-27T14:31:28.358Z,99.00
2023-11-27T14:32:28.311Z,88.00
2023-11-27T14:33:28.351Z,77.00
2023-11-27T14:34:28.335Z,97.00
2023-11-27T14:35:28.306Z,66.00
2023-11-27T14:36:28.279Z,88.00
2023-11-27T14:37:28.314Z,77.00
2023-11-27T14:38:28.256Z,65.00
2023-11-27T14:39:28.289Z,75.00
2023-11-27T14:40:28.276Z,69.00
2023-11-27T14:41:28.238Z,81.00
2023-11-27T14:42:28.195Z,64.00
2023-11-27T14:43:28.263Z,70.00
2023-11-27T14:44:28.183Z,80.00
2023-11-27T14:45:28.202Z,65.00
2023-11-27T14:46:28.278Z,64.00
2023-11-27T14:47:28.327Z,71.00
2023-11-27T14:48:28.167Z,62.00
2023-11-27T14:49:28.184Z,60.00
2023-11-27T14:50:28.124Z,70.00
2023-11-27T14:51:28.194Z,61.00
2023-11-27T14:52:28.746Z,53.00
2023-11-27T14:53:28.110Z,54.00
2023-11-27T14:54:28.082Z,45.00
2023-11-27T14:55:28.098Z,50.00
2023-11-27T14:56:28.250Z,51.00
2023-11-27T14:57:28.061Z,43.00
2023-11-27T14:58:28.049Z,50.00
2023-11-27T14:59:28.044Z,41.00
2023-11-27T15:00:29.285Z,50.00
2023-11-27T15:01:28.189Z,43.00
2023-11-27T15:02:28.091Z,39.00
2023-11-27T15:03:28.282Z,37.00
2023-11-27T15:04:28.049Z,31.00
2023-11-27T15:05:27.974Z,31.00
2023-11-27T15:06:27.957Z,25.00
2023-11-27T15:07:28.074Z,26.00
2023-11-27T15:08:27.933Z,25.00
2023-11-27T15:09:28.006Z,25.00
2023-11-27T15:10:27.939Z,25.00
2023-11-27T15:11:27.914Z,26.00
2023-11-27T15:12:27.897Z,20.00
2023-11-27T15:13:27.975Z,19.00
2023-11-27T15:14:27.896Z,18.00
2023-11-27T15:15:28.139Z,15.00
2023-11-27T15:16:27.980Z,14.00
2023-11-27T15:17:27.925Z,14.00
2023-11-27T15:18:27.850Z,15.00
2023-11-27T15:19:27.896Z,13.00
2023-11-27T15:20:28.238Z,13.00
2023-11-27T15:21:27.820Z,12.00
2023-11-27T15:22:27.807Z,13.00
2023-11-27T15:23:27.817Z,12.00
2023-11-27T15:24:27.772Z,10.00
2023-11-27T15:25:27.843Z,8.00
2023-11-27T15:26:27.787Z,8.00
2023-11-27T15:27:27.800Z,8.00
2023-11-27T15:28:27.769Z,8.00
2023-11-27T15:29:27.738Z,8.00
2023-11-27T15:30:27.706Z,6.00
2023-11-27T15:31:27.811Z,6.00
2023-11-27T15:32:27.735Z,6.00
2023-11-27T15:33:27.793Z,5.00
2023-11-27T15:34:29.207Z,4.00
2023-11-27T15:35:27.681Z,4.00
2023-11-27T15:36:27.652Z,3.00
2023-11-27T15:37:33.771Z,3.00
2023-11-27T15:42:05.630Z,2.00
2023-11-27T15:43:06.704Z,2.00
2023-11-27T15:44:06.588Z,1.00
2023-11-27T15:45:06.591Z,1.00
2023-11-27T15:46:09.212Z,1.00
2023-11-27T15:47:06.849Z,0.00
2023-11-27T15:48:06.638Z,0.00
2023-11-27T15:49:06.669Z,0.00
2023-11-27T15:50:06.581Z,0.00
2023-11-27T15:51:06.614Z,0.00
2023-11-27T15:52:06.554Z,0.00
2023-11-27T15:53:06.578Z,0.00
2023-11-27T15:54:06.567Z,0.00
2023-11-27T15:55:06.578Z,0.00
2023-11-27T15:56:06.522Z,0.00
2023-11-27T15:57:06.516Z,0.00
2023-11-27T15:58:06.521Z,0.00
2023-11-27T15:59:06.511Z,0.00
2023-11-27T16:00:06.510Z,0.00
2023-11-27T16:01:06.535Z,0.00
2023-11-27T16:02:06.507Z,0.00
2023-11-27T16:03:06.488Z,0.00
2023-11-27T16:04:06.462Z,0.00
2023-11-27T16:05:06.445Z,0.00
2023-11-27T16:06:06.525Z,0.00
2023-11-27T16:07:06.433Z,0.00
2023-11-27T16:08:07.391Z,0.00
2023-11-27T16:09:06.391Z,0.00
2023-11-27T16:10:06.379Z,0.00
2023-11-27T16:11:06.399Z,0.00
2023-11-27T16:12:06.643Z,0.00
2023-11-27T16:13:06.358Z,0.00
2023-11-27T16:14:06.355Z,0.00
2023-11-27T16:15:06.341Z,0.00
2023-11-27T16:16:06.322Z,0.00
2023-11-27T16:17:06.300Z,0.00
2023-11-27T16:18:06.375Z,0.00
2023-11-27T16:19:06.298Z,0.00
2023-11-27T16:20:06.289Z,0.00
2023-11-27T16:21:06.261Z,0.00
2023-11-27T16:22:06.269Z,0.00
2023-11-27T16:23:06.290Z,0.00
2023-11-27T16:24:06.250Z,0.00
2023-11-27T16:25:06.224Z,0.00
2023-11-27T16:26:06.218Z,0.00
2023-11-27T16:27:06.196Z,0.00
2023-11-27T16:28:06.217Z,0.00
2023-11-27T16:29:06.225Z,0.00
2023-11-27T16:30:06.200Z,0.00
2023-11-27T16:31:06.209Z,0.00
2023-11-27T16:32:06.252Z,0.00
2023-11-27T16:33:06.184Z,0.00
2023-11-27T16:34:06.168Z,0.00
2023-11-27T16:35:06.132Z,0.00
2023-11-27T16:36:06.141Z,0.00
2023-11-27T16:37:06.112Z,0.00
2023-11-27T16:38:06.104Z,0.00
2023-11-27T16:39:06.091Z,0.00
2023-11-27T16:40:06.085Z,0.00
2023-11-27T16:41:06.083Z,0.00
2023-11-27T16:42:06.063Z,0.00
2023-11-27T16:43:06.034Z,0.00
2023-11-27T16:44:06.042Z,0.00
2023-11-27T16:45:06.018Z,0.00
2023-11-27T16:46:06.153Z,0.00
2023-11-27T16:47:06.810Z,0.00
2023-11-27T16:48:07.879Z,0.00
2023-11-27T16:49:05.977Z,0.00
2023-11-27T16:50:05.993Z,0.00
2023-11-27T16:51:05.956Z,0.00
2023-11-27T16:52:05.992Z,0.00
2023-11-27T16:53:05.932Z,0.00
2023-11-27T16:54:05.941Z,0.00
2023-11-27T16:55:07.545Z,0.00
2023-11-27T16:56:05.938Z,0.00
2023-11-27T16:57:05.887Z,0.00
2023-11-27T16:58:06.925Z,0.00
2023-11-27T16:59:05.873Z,0.00
2023-11-27T17:00:05.887Z,0.00
2023-11-27T17:01:05.852Z,0.00
2023-11-27T17:02:06.006Z,0.00
2023-11-27T17:03:06.095Z,0.00
2023-11-27T17:04:05.943Z,0.00
2023-11-27T17:05:05.890Z,0.00
2023-11-27T17:06:05.815Z,0.00
2023-11-27T17:07:05.799Z,0.00
2023-11-27T17:08:05.799Z,0.00
2023-11-27T17:09:05.776Z,0.00
2023-11-27T17:10:05.854Z,0.00
2023-11-27T17:11:05.770Z,0.00
2023-11-27T17:12:05.764Z,0.00
2023-11-27T17:13:05.725Z,0.00
2023-11-27T17:14:05.754Z,0.00
2023-11-27T17:15:05.712Z,0.00
2023-11-27T17:16:05.746Z,0.00
2023-11-27T17:17:05.888Z,0.00
2023-11-27T17:18:05.715Z,0.00
2023-11-27T17:19:05.673Z,0.00
2023-11-27T17:20:05.683Z,0.00
2023-11-27T17:21:05.645Z,0.00
2023-11-27T17:22:05.662Z,0.00
2023-11-27T17:23:07.341Z,0.00
2023-11-27T17:24:05.658Z,0.00
2023-11-27T17:25:05.625Z,0.00
2023-11-27T17:26:05.724Z,0.00
2023-11-27T17:27:05.593Z,0.00
2023-11-27T17:28:05.598Z,0.00
2023-11-27T17:29:05.565Z,0.00
2023-11-27T17:30:05.581Z,0.00
2023-11-27T17:31:05.622Z,0.00
2023-11-27T17:32:05.560Z,0.00
2023-11-27T17:33:05.519Z,0.00
2023-11-27T17:34:05.525Z,0.00
2023-11-27T17:35:05.501Z,0.00
2023-11-27T17:36:05.507Z,0.00
2023-11-27T17:37:05.513Z,0.00